Time;durP1;ratioP1;P1;durP2;ratioP2;P2;SDS_P1;SDS_P2;PMS_P1;PMS_P2;Temp;Humidity;BMP_temperature;BMP_pressure;BME280_temperature;BME280_humidity;BME280_pressure;Samples;Min_cycle;Max_cycle;Signal;HPM_P1;HPM_P2
2022/10/26 00:01:16;;;;;;;8.83;4.20;;;;;;;11.76;100.00;96373.00;5039855;28;20216;-72
2022/10/26 00:03:44;;;;;;;11.10;4.87;;;;;;;11.73;100.00;96368.09;5038738;28;21132;-72
2022/10/26 00:06:13;;;;;;;13.67;4.83;;;;;;;11.74;100.00;96359.19;5039349;28;20208;-72
2022/10/26 00:08:40;;;;;;;10.03;4.97;;;;;;;11.76;100.00;96358.00;5039460;28;20208;-72
2022/10/26 00:11:07;;;;;;;12.03;5.30;;;;;;;11.77;100.00;96350.91;5039237;28;20681;-72
2022/10/26 00:13:36;;;;;;;7.60;4.27;;;;;;;11.82;100.00;96348.53;5038545;28;20229;-72
2022/10/26 00:16:08;;;;;;;11.00;5.20;;;;;;;11.82;100.00;96349.34;5039308;28;20205;-72
2022/10/26 00:18:34;;;;;;;10.03;4.53;;;;;;;11.73;100.00;96337.22;5039520;28;20225;-72
2022/10/26 00:21:03;;;;;;;11.93;4.63;;;;;;;11.64;100.00;96334.88;5039046;28;20216;-72
2022/10/26 00:23:30;;;;;;;11.20;4.80;;;;;;;11.61;100.00;96345.81;5038390;28;20224;-72
2022/10/26 00:25:57;;;;;;;12.43;4.67;;;;;;;11.70;100.00;96347.34;5039347;28;20205;-72
2022/10/26 00:28:24;;;;;;;10.50;4.50;;;;;;;11.71;100.00;96341.91;5039194;28;20201;-72
2022/10/26 00:30:51;;;;;;;8.13;4.47;;;;;;;11.80;100.00;96346.09;5039376;28;20212;-72
2022/10/26 00:33:18;;;;;;;16.93;4.83;;;;;;;11.58;100.00;96348.78;5037987;28;20233;-72
2022/10/26 00:35:47;;;;;;;12.23;4.47;;;;;;;11.73;100.00;96349.63;5039117;28;20198;-72
2022/10/26 00:38:14;;;;;;;7.23;4.40;;;;;;;11.67;100.00;96352.97;5039217;28;20236;-72
2022/10/26 00:40:41;;;;;;;8.37;4.83;;;;;;;11.75;100.00;96352.91;5038263;28;20563;-72
2022/10/26 00:43:14;;;;;;;8.90;5.03;;;;;;;11.89;100.00;96360.00;5038399;28;20225;-72
2022/10/26 00:45:41;;;;;;;11.13;4.67;;;;;;;11.82;100.00;96365.19;5038756;28;20817;-72
2022/10/26 00:48:15;;;;;;;9.17;4.97;;;;;;;11.90;100.00;96367.75;5038083;28;20220;-72
2022/10/26 00:50:44;;;;;;;13.80;4.80;;;;;;;11.86;100.00;96373.56;5039206;28;20208;-72
2022/10/26 00:53:12;;;;;;;11.63;4.30;;;;;;;11.83;100.00;96382.69;5038301;28;20225;-72
2022/10/26 00:55:41;;;;;;;8.07;4.63;;;;;;;11.85;100.00;96385.13;5038544;28;20213;-72
2022/10/26 00:58:10;;;;;;;11.87;4.97;;;;;;;11.89;100.00;96381.97;5038410;28;20216;-72
2022/10/26 01:00:37;;;;;;;8.40;4.67;;;;;;;11.91;100.00;96384.41;5038629;28;20197;-72
2022/10/26 01:03:06;;;;;;;10.27;5.17;;;;;;;11.95;100.00;96396.25;5038017;28;20228;-72
2022/10/26 01:05:36;;;;;;;9.37;5.03;;;;;;;11.90;100.00;96385.41;5038055;28;20205;-71
2022/10/26 01:08:03;;;;;;;11.63;5.67;;;;;;;11.83;100.00;96385.31;5037499;28;20197;-72
2022/10/26 01:10:30;;;;;;;14.10;5.90;;;;;;;11.86;100.00;96381.50;5038315;28;20198;-72
2022/10/26 01:12:58;;;;;;;9.30;5.00;;;;;;;11.87;100.00;96377.84;5037507;28;20252;-72
2022/10/26 01:15:31;;;;;;;10.07;5.80;;;;;;;11.89;100.00;96360.00;5038229;28;20224;-72
2022/10/26 01:18:06;;;;;;;11.77;5.33;;;;;;;11.94;100.00;96341.78;5038451;28;20813;-72
2022/10/26 01:20:52;;;;;;;8.53;5.07;;;;;;;11.90;100.00;96359.84;5037782;28;20207;-72
2022/10/26 01:23:26;;;;;;;8.37;5.37;;;;;;;11.79;100.00;96375.31;5037379;28;20239;-72
2022/10/26 01:26:15;;;;;;;8.77;5.13;;;;;;;11.87;100.00;96378.66;5037897;28;20209;-72
2022/10/26 01:29:01;;;;;;;8.53;5.10;;;;;;;11.93;100.00;96366.59;5037984;28;20200;-72
2022/10/26 01:31:34;;;;;;;13.80;5.50;;;;;;;11.90;100.00;96375.69;5038000;28;20209;-72
2022/10/26 01:34:04;;;;;;;10.07;4.90;;;;;;;11.95;100.00;96365.41;5036995;28;20220;-72
2022/10/26 01:36:40;;;;;;;10.70;5.67;;;;;;;11.95;100.00;96369.84;5037727;28;20229;-72
2022/10/26 01:39:14;;;;;;;10.37;5.60;;;;;;;11.93;100.00;96364.75;5037553;28;20704;-72
2022/10/26 01:41:46;;;;;;;12.37;5.50;;;;;;;11.95;100.00;96370.69;5038134;28;20200;-72
2022/10/26 01:44:17;;;;;;;12.33;5.70;;;;;;;11.93;100.00;96377.16;5037050;28;20221;-72
2022/10/26 01:46:47;;;;;;;10.03;5.40;;;;;;;11.95;100.00;96386.53;5037946;28;20215;-72
2022/10/26 01:49:16;;;;;;;9.57;5.50;;;;;;;11.88;100.00;96387.44;5037553;28;20205;-72
2022/10/26 01:51:44;;;;;;;9.17;5.37;;;;;;;11.91;100.00;96394.97;5037469;28;20216;-72
2022/10/26 01:54:11;;;;;;;9.27;5.00;;;;;;;11.80;100.00;96393.59;5036390;28;20232;-72
2022/10/26 01:56:40;;;;;;;12.00;5.57;;;;;;;11.85;100.00;96390.41;5037714;28;20205;-72
2022/10/26 01:59:35;;;;;;;10.70;5.20;;;;;;;11.82;100.00;96377.59;5037399;28;20229;-72
2022/10/26 02:02:29;;;;;;;8.47;5.10;;;;;;;11.84;100.00;96357.91;5035150;28;20211;-72
2022/10/26 02:05:19;;;;;;;10.90;5.33;;;;;;;11.83;100.00;96350.19;5037064;28;20221;-72
2022/10/26 02:07:55;;;;;;;11.47;5.07;;;;;;;11.70;100.00;96328.88;5037431;28;20205;-72
2022/10/26 02:10:32;;;;;;;13.50;5.33;;;;;;;11.68;100.00;96320.31;5037290;28;20224;-72
2022/10/26 02:13:06;;;;;;;12.27;5.67;;;;;;;11.76;100.00;96333.41;5036637;28;20243;-72
2022/10/26 02:15:39;;;;;;;14.23;6.03;;;;;;;11.76;100.00;96307.00;5037213;28;20200;-72
2022/10/26 02:18:17;;;;;;;15.07;5.43;;;;;;;11.77;100.00;96308.66;5037229;28;20205;-72
2022/10/26 02:20:49;;;;;;;11.27;5.20;;;;;;;11.78;100.00;96307.66;5036849;28;20216;-72
2022/10/26 02:23:17;;;;;;;13.60;5.63;;;;;;;11.80;100.00;96313.56;5036457;28;20222;-72
2022/10/26 02:25:49;;;;;;;10.27;4.93;;;;;;;11.76;100.00;96313.13;5037225;28;20231;-72
2022/10/26 02:28:20;;;;;;;8.73;4.33;;;;;;;11.81;100.00;96315.22;5036947;28;20201;-72
2022/10/26 02:30:50;;;;;;;10.40;4.77;;;;;;;11.82;100.00;96301.00;5037456;28;20575;-72
2022/10/26 02:33:20;;;;;;;9.37;3.77;;;;;;;11.87;100.00;96299.44;5036418;28;20248;-72
2022/10/26 02:35:52;;;;;;;12.37;4.50;;;;;;;11.85;100.00;96300.63;5037097;28;20995;-72
2022/10/26 02:38:21;;;;;;;9.23;4.40;;;;;;;11.82;100.00;96304.47;5034107;28;20205;-72
2022/10/26 02:40:50;;;;;;;8.30;3.77;;;;;;;11.86;100.00;96307.56;5036730;28;20240;-72
2022/10/26 02:43:20;;;;;;;8.27;4.17;;;;;;;11.88;100.00;96302.94;5035598;28;20228;-72
2022/10/26 02:45:51;;;;;;;5.83;3.53;;;;;;;11.97;100.00;96320.31;5036783;28;20863;-72
2022/10/26 02:48:19;;;;;;;9.97;3.97;;;;;;;11.78;100.00;96320.88;5036279;28;20219;-72
2022/10/26 02:50:57;;;;;;;8.17;3.70;;;;;;;11.95;100.00;96324.94;5036724;28;20205;-72
2022/10/26 02:53:28;;;;;;;16.53;3.97;;;;;;;11.88;100.00;96324.06;5036227;28;20220;-72
2022/10/26 02:55:55;;;;;;;6.30;4.10;;;;;;;11.90;100.00;96324.69;5036800;28;20208;-72
2022/10/26 02:58:27;;;;;;;10.23;4.40;;;;;;;11.97;100.00;96322.97;5036765;28;20209;-72
2022/10/26 03:00:54;;;;;;;7.73;3.73;;;;;;;11.91;100.00;96332.41;5036490;28;20225;-72
2022/10/26 03:03:22;;;;;;;7.90;4.10;;;;;;;11.98;100.00;96337.81;5036158;28;20698;-72
2022/10/26 03:05:49;;;;;;;8.27;3.90;;;;;;;11.95;100.00;96343.44;5036653;28;20607;-72
2022/10/26 03:08:15;;;;;;;6.93;3.87;;;;;;;11.90;100.00;96338.72;5036233;28;20761;-72
2022/10/26 03:10:44;;;;;;;9.77;4.20;;;;;;;11.99;100.00;96350.00;5036656;28;20207;-72
2022/10/26 03:13:12;;;;;;;6.57;3.40;;;;;;;11.88;100.00;96355.75;5035653;28;20221;-72
2022/10/26 03:15:38;;;;;;;7.37;4.00;;;;;;;11.79;100.00;96360.28;5036643;28;20216;-72
2022/10/26 03:18:05;;;;;;;7.30;4.00;;;;;;;11.84;100.00;96367.66;5036562;28;20201;-72
2022/10/26 03:20:33;;;;;;;7.13;4.13;;;;;;;11.84;100.00;96349.19;5036453;28;20252;-72
2022/10/26 03:23:00;;;;;;;7.37;4.10;;;;;;;11.74;100.00;96357.34;5035933;28;20229;-72
2022/10/26 03:25:27;;;;;;;10.43;4.67;;;;;;;11.79;100.00;96357.63;5036747;28;20201;-72
2022/10/26 03:27:58;;;;;;;9.37;4.83;;;;;;;11.85;100.00;96348.16;5036599;28;20248;-72
2022/10/26 03:30:24;;;;;;;10.03;4.23;;;;;;;11.74;100.00;96367.91;5036508;28;20204;-72
2022/10/26 03:32:51;;;;;;;8.43;4.90;;;;;;;11.65;100.00;96365.56;5038428;28;20221;-72
2022/10/26 03:35:17;;;;;;;10.27;4.60;;;;;;;11.65;100.00;96368.19;5040644;28;20212;-72
2022/10/26 03:37:46;;;;;;;9.47;4.80;;;;;;;11.71;100.00;96372.72;5040249;28;20216;-72
2022/10/26 03:40:13;;;;;;;8.57;4.63;;;;;;;11.69;100.00;96374.75;5039417;28;20221;-72
2022/10/26 03:42:40;;;;;;;9.10;4.70;;;;;;;11.71;100.00;96372.72;5039227;28;20229;-72
2022/10/26 03:45:08;;;;;;;8.10;4.70;;;;;;;11.81;100.00;96381.22;5040158;28;20205;-72
2022/10/26 03:47:34;;;;;;;9.60;4.83;;;;;;;11.78;100.00;96387.69;5040129;28;20237;-72
2022/10/26 03:50:01;;;;;;;9.27;4.80;;;;;;;11.95;100.00;96396.25;5040086;28;20209;-72
2022/10/26 03:52:27;;;;;;;12.00;5.43;;;;;;;11.93;100.00;96390.34;5039114;28;21245;-72
2022/10/26 03:54:55;;;;;;;12.53;5.10;;;;;;;12.01;100.00;96400.81;5040248;28;20202;-72
2022/10/26 03:57:22;;;;;;;13.87;5.97;;;;;;;11.93;100.00;96395.63;5039285;28;20231;-72
2022/10/26 03:59:48;;;;;;;8.93;5.83;;;;;;;11.95;100.00;96390.97;5039451;28;20228;-72
2022/10/26 04:02:15;;;;;;;10.80;6.30;;;;;;;11.95;100.00;96402.38;5039094;28;21118;-72
2022/10/26 04:04:41;;;;;;;11.47;6.00;;;;;;;11.97;100.00;96428.59;5039736;28;20209;-72
2022/10/26 04:07:07;;;;;;;12.97;6.10;;;;;;;11.92;100.00;96475.84;5039050;28;20205;-72
2022/10/26 04:09:34;;;;;;;14.97;5.23;;;;;;;11.86;100.00;96472.09;5037295;28;20461;-72
2022/10/26 04:12:02;;;;;;;17.40;8.03;;;;;;;11.92;100.00;96444.16;5039392;28;20205;-72
2022/10/26 04:14:28;;;;;;;12.13;6.17;;;;;;;11.90;100.00;96473.38;5038763;28;20208;-72
2022/10/26 04:16:55;;;;;;;11.07;6.20;;;;;;;11.93;100.00;96461.66;5039270;28;20220;-72
2022/10/26 04:19:21;;;;;;;18.20;6.27;;;;;;;11.71;100.00;96446.66;5039540;28;20225;-72
2022/10/26 04:21:48;;;;;;;17.83;5.77;;;;;;;11.72;100.00;96472.91;5039470;28;20208;-72
2022/10/26 04:24:15;;;;;;;12.00;5.03;;;;;;;11.76;100.00;96431.09;5038365;28;20225;-72
2022/10/26 04:26:41;;;;;;;12.77;5.60;;;;;;;11.82;100.00;96435.66;5039271;28;20237;-72
2022/10/26 04:29:09;;;;;;;11.00;6.13;;;;;;;11.82;100.00;96438.31;5039239;28;20205;-72
2022/10/26 04:31:35;;;;;;;10.60;6.13;;;;;;;11.77;100.00;96430.09;5038840;28;20212;-72
2022/10/26 04:34:02;;;;;;;17.23;6.43;;;;;;;11.68;100.00;96457.56;5038544;28;20243;-72
2022/10/26 04:36:30;;;;;;;14.17;6.87;;;;;;;11.86;100.00;96460.72;5038944;28;20201;-72
2022/10/26 04:38:56;;;;;;;13.40;6.60;;;;;;;11.85;100.00;96448.50;5038939;28;20205;-72
2022/10/26 04:41:23;;;;;;;20.30;8.03;;;;;;;11.93;100.00;96453.72;5038925;28;20792;-72
2022/10/26 04:43:49;;;;;;;14.27;7.17;;;;;;;11.96;100.00;96458.63;5038452;28;20236;-72
2022/10/26 04:46:17;;;;;;;16.47;7.67;;;;;;;12.05;100.00;96454.91;5038789;28;20208;-72
2022/10/26 04:48:44;;;;;;;12.70;6.70;;;;;;;11.97;100.00;96452.38;5038521;28;20700;-72
2022/10/26 04:51:11;;;;;;;10.47;4.67;;;;;;;11.97;100.00;96447.88;5039116;28;20252;-72
2022/10/26 04:53:37;;;;;;;13.67;4.90;;;;;;;11.97;100.00;96466.38;5037782;28;20228;-72
2022/10/26 04:56:04;;;;;;;8.53;4.63;;;;;;;11.83;100.00;96437.31;5038430;28;20643;-72
2022/10/26 04:58:31;;;;;;;15.10;5.30;;;;;;;11.98;100.00;96402.00;5038777;28;20209;-72
2022/10/26 05:00:57;;;;;;;12.90;5.40;;;;;;;11.88;100.00;96401.44;5038420;28;20231;-72
2022/10/26 05:03:25;;;;;;;12.47;5.37;;;;;;;12.04;100.00;96395.16;5037533;28;20232;-72
2022/10/26 05:05:51;;;;;;;9.63;4.67;;;;;;;12.09;100.00;96404.16;5038616;28;20205;-72
2022/10/26 05:08:18;;;;;;;11.47;3.87;;;;;;;12.03;100.00;96435.78;5034951;28;20205;-72
2022/10/26 05:10:48;;;;;;;9.67;5.27;;;;;;;12.08;100.00;96433.41;5038279;28;20216;-72
2022/10/26 05:13:15;;;;;;;14.60;6.00;;;;;;;12.02;100.00;96444.72;5037946;28;20247;-72
2022/10/26 05:15:42;;;;;;;11.17;5.67;;;;;;;12.04;100.00;96445.34;5038178;28;20200;-72
2022/10/26 05:18:08;;;;;;;11.57;5.30;;;;;;;12.12;100.00;96455.81;5038412;28;20205;-72
2022/10/26 05:20:36;;;;;;;12.20;5.10;;;;;;;12.13;100.00;96452.19;5038033;28;20225;-72
2022/10/26 05:23:04;;;;;;;13.13;5.20;;;;;;;12.20;100.00;96449.44;5037301;28;20244;-72
2022/10/26 05:25:34;;;;;;;8.83;4.50;;;;;;;12.21;100.00;96443.16;5038288;28;20205;-72
2022/10/26 05:28:02;;;;;;;12.87;4.77;;;;;;;12.15;100.00;96437.78;5037449;28;20212;-72
2022/10/26 05:30:29;;;;;;;14.90;6.13;;;;;;;12.21;100.00;96429.97;5037788;28;20205;-72
2022/10/26 05:32:57;;;;;;;9.57;4.57;;;;;;;12.15;100.00;96439.63;5037260;28;20221;-72
2022/10/26 05:35:24;;;;;;;12.20;3.90;;;;;;;12.16;100.00;96430.72;5037419;28;20208;-72
2022/10/26 05:37:52;;;;;;;10.17;3.80;;;;;;;12.21;100.00;96432.59;5037968;28;20205;-72
2022/10/26 05:40:19;;;;;;;7.35;4.20;;;;;;;12.19;100.00;96439.06;5037821;28;20225;-72
2022/10/26 05:42:46;;;;;;;7.28;3.85;;;;;;;12.25;100.00;96448.91;5036915;28;20228;-72
2022/10/26 05:45:13;;;;;;;8.30;4.30;;;;;;;12.22;100.00;96457.22;5037737;28;20201;-72
2022/10/26 05:47:40;;;;;;;6.35;3.90;;;;;;;12.27;100.00;96453.03;5037286;28;20437;-72
2022/10/26 05:50:07;;;;;;;7.93;3.83;;;;;;;12.28;100.00;96462.59;5038025;28;20204;-72
2022/10/26 05:52:38;;;;;;;8.73;3.87;;;;;;;12.37;100.00;96464.16;5036914;28;20224;-73
2022/10/26 05:55:07;;;;;;;8.73;4.20;;;;;;;12.39;100.00;96458.66;5036853;28;20205;-72
2022/10/26 05:57:34;;;;;;;10.97;4.27;;;;;;;12.33;100.00;96465.50;5037501;28;20212;-73
2022/10/26 06:00:02;;;;;;;13.07;5.40;;;;;;;12.36;100.00;96472.25;5038193;28;20221;-72
2022/10/26 06:02:37;;;;;;;13.00;4.43;;;;;;;12.45;100.00;96474.63;5036456;28;20220;-72
2022/10/26 06:05:05;;;;;;;12.25;4.22;;;;;;;12.41;100.00;96459.28;5038035;28;20215;-72
2022/10/26 06:07:33;;;;;;;9.37;4.60;;;;;;;12.36;100.00;96457.22;5035388;28;20205;-72
2022/10/26 06:10:00;;;;;;;8.60;4.90;;;;;;;12.41;100.00;96467.22;5037581;28;20201;-72
2022/10/26 06:12:28;;;;;;;9.47;4.10;;;;;;;12.50;100.00;96463.47;5036883;28;20709;-72
2022/10/26 06:14:55;;;;;;;8.07;4.40;;;;;;;12.46;100.00;96465.69;5037711;28;20197;-72
2022/10/26 06:17:40;;;;;;;5.43;3.50;;;;;;;12.62;100.00;96470.78;5037515;28;20216;-72
2022/10/26 06:20:22;;;;;;;5.37;3.33;;;;;;;12.60;100.00;96469.31;5037739;28;20217;-72
2022/10/26 06:23:01;;;;;;;11.05;4.13;;;;;;;12.58;100.00;96477.44;5037057;28;20229;-72
2022/10/26 06:25:35;;;;;;;9.20;4.47;;;;;;;12.50;100.00;96472.25;5037432;28;20205;-72
2022/10/26 06:28:16;;;;;;;8.97;4.17;;;;;;;12.57;100.00;96472.34;5037433;28;20203;-72
2022/10/26 06:30:43;;;;;;;7.23;4.00;;;;;;;12.60;100.00;96466.66;5037393;28;20229;-72
2022/10/26 06:33:12;;;;;;;10.85;3.50;;;;;;;12.63;100.00;96464.50;5036525;28;20240;-72
2022/10/26 06:35:49;;;;;;;5.87;3.17;;;;;;;12.72;100.00;96471.31;5037241;28;20204;-72
2022/10/26 06:38:18;;;;;;;5.57;3.13;;;;;;;12.67;100.00;96468.41;5037827;28;20201;-73
2022/10/26 06:40:48;;;;;;;5.30;3.30;;;;;;;12.63;100.00;96472.41;5037452;28;20228;-72
2022/10/26 06:43:23;;;;;;;9.23;3.77;;;;;;;12.74;100.00;96471.13;5036936;28;20221;-72
2022/10/26 06:45:57;;;;;;;9.70;4.25;;;;;;;12.73;100.00;96480.91;5037169;28;20326;-73
2022/10/26 06:48:27;;;;;;;12.77;5.10;;;;;;;12.66;100.00;96487.09;5037010;28;20213;-72
2022/10/26 06:50:55;;;;;;;14.77;4.15;;;;;;;12.67;100.00;96489.56;5037427;28;20433;-73
2022/10/26 06:53:27;;;;;;;7.25;3.85;;;;;;;12.76;100.00;96490.28;5036268;28;20225;-72
2022/10/26 06:55:57;;;;;;;6.40;3.43;;;;;;;12.81;100.00;96491.38;5037711;28;20602;-72
2022/10/26 06:58:29;;;;;;;8.82;3.90;;;;;;;12.74;100.00;96497.56;5037107;28;20205;-72
2022/10/26 07:00:56;;;;;;;6.20;3.40;;;;;;;12.71;100.00;96496.09;5037088;28;20232;-72
2022/10/26 07:03:23;;;;;;;5.50;3.13;;;;;;;12.72;100.00;96492.47;5036853;28;20217;-72
2022/10/26 07:05:50;;;;;;;5.67;3.30;;;;;;;12.79;100.00;96485.44;5038542;28;20205;-72
2022/10/26 07:08:16;;;;;;;6.70;3.57;;;;;;;12.83;100.00;96476.16;5038527;28;20205;-72
2022/10/26 07:10:43;;;;;;;5.90;3.30;;;;;;;12.89;100.00;96480.72;5041294;28;20201;-72
2022/10/26 07:13:10;;;;;;;11.15;3.97;;;;;;;13.01;100.00;96472.13;5040411;28;20232;-72
2022/10/26 07:15:39;;;;;;;5.45;3.00;;;;;;;13.11;100.00;96477.94;5040667;28;20201;-73
2022/10/26 07:18:07;;;;;;;6.13;3.30;;;;;;;13.22;100.00;96489.84;5041208;28;20207;-73
2022/10/26 07:20:37;;;;;;;7.05;3.15;;;;;;;13.28;100.00;96486.47;5041203;28;20229;-73
2022/10/26 07:23:05;;;;;;;6.35;3.13;;;;;;;13.24;100.00;96490.47;5040111;28;20221;-73
2022/10/26 07:25:32;;;;;;;10.00;3.45;;;;;;;13.30;100.00;96487.09;5040653;28;20209;-73
2022/10/26 07:27:59;;;;;;;4.70;3.25;;;;;;;13.29;100.00;96485.44;5040679;28;20209;-72
2022/10/26 07:30:26;;;;;;;10.27;3.90;;;;;;;13.35;100.00;96495.28;5039801;28;20208;-72
2022/10/26 07:33:00;;;;;;;6.28;3.15;;;;;;;13.63;100.00;96507.59;5039226;28;20217;-72
2022/10/26 07:35:26;;;;;;;11.93;3.50;;;;;;;13.52;100.00;96516.84;5039826;28;20205;-73
2022/10/26 07:37:56;;;;;;;7.93;3.17;;;;;;;13.50;100.00;96520.69;5040590;28;20209;-72
2022/10/26 07:40:23;;;;;;;6.18;3.13;;;;;;;13.46;100.00;96530.84;5040106;28;20197;-72
2022/10/26 07:42:49;;;;;;;6.63;3.13;;;;;;;13.42;100.00;96534.88;5039535;28;20225;-72
2022/10/26 07:45:16;;;;;;;5.57;3.47;;;;;;;13.47;100.00;96537.78;5040968;28;20212;-72
2022/10/26 07:47:42;;;;;;;4.53;2.93;;;;;;;13.49;100.00;96535.78;5039880;28;20209;-72
2022/10/26 07:50:10;;;;;;;12.67;3.87;;;;;;;13.55;100.00;96532.34;5040610;28;20201;-72
2022/10/26 07:52:37;;;;;;;5.50;4.00;;;;;;;13.60;100.00;96542.41;5039720;28;20225;-72
2022/10/26 07:55:05;;;;;;;8.90;4.28;;;;;;;13.64;100.00;96538.38;5040323;28;20247;-72
2022/10/26 07:57:31;;;;;;;7.55;4.28;;;;;;;13.81;100.00;96545.88;5040408;28;20201;-72
2022/10/26 07:59:58;;;;;;;7.32;4.18;;;;;;;13.92;100.00;96536.59;5040368;28;20201;-72
2022/10/26 08:02:24;;;;;;;11.60;4.38;;;;;;;13.96;100.00;96543.97;5039712;28;20595;-72
2022/10/26 08:04:51;;;;;;;9.38;4.13;;;;;;;14.17;100.00;96547.47;5039346;28;20212;-71
2022/10/26 08:07:20;;;;;;;6.30;3.60;;;;;;;14.22;100.00;96554.84;5039129;28;20563;-72
2022/10/26 08:09:47;;;;;;;6.78;3.72;;;;;;;14.25;100.00;96554.47;5039373;28;20205;-72
2022/10/26 08:12:15;;;;;;;6.50;3.80;;;;;;;14.29;100.00;96555.72;5039514;28;20582;-71
2022/10/26 08:14:42;;;;;;;8.77;3.47;;;;;;;14.44;100.00;96559.09;5039347;28;20205;-72
2022/10/26 08:17:08;;;;;;;7.40;3.10;;;;;;;14.41;100.00;96562.97;5038347;28;20212;-72
2022/10/26 08:19:35;;;;;;;8.70;3.60;;;;;;;14.39;100.00;96561.50;5039891;28;20201;-72
2022/10/26 08:22:01;;;;;;;5.32;3.15;;;;;;;14.58;100.00;96558.19;5038868;28;20221;-72
2022/10/26 08:24:30;;;;;;;8.70;3.20;;;;;;;14.66;100.00;96554.38;5038254;28;20217;-72
2022/10/26 08:26:56;;;;;;;11.52;3.53;;;;;;;14.69;100.00;96564.59;5039219;28;20618;-72
2022/10/26 08:29:23;;;;;;;11.18;4.38;;;;;;;14.64;100.00;96561.69;5039344;28;20233;-72
2022/10/26 08:31:49;;;;;;;7.85;3.20;;;;;;;14.81;100.00;96562.22;5039559;28;20578;-72
2022/10/26 08:34:16;;;;;;;7.03;4.00;;;;;;;14.91;100.00;96558.19;5038252;28;20236;-72
2022/10/26 08:36:42;;;;;;;7.60;3.78;;;;;;;14.99;100.00;96563.31;5038815;28;20224;-72
2022/10/26 08:39:09;;;;;;;7.20;3.67;;;;;;;15.11;100.00;96564.44;5038267;28;20669;-72
2022/10/26 08:41:40;;;;;;;7.15;3.58;;;;;;;15.22;100.00;96569.19;5039141;28;20228;-72
2022/10/26 08:44:20;;;;;;;6.93;4.03;;;;;;;15.23;100.00;96570.03;5038307;28;20240;-72
2022/10/26 08:46:52;;;;;;;7.60;3.65;;;;;;;15.15;100.00;96581.59;5038722;28;20603;-72
2022/10/26 08:49:23;;;;;;;10.43;3.80;;;;;;;15.16;100.00;96577.94;5038939;28;20853;-71
2022/10/26 08:51:52;;;;;;;5.60;3.28;;;;;;;15.10;100.00;96573.41;5039359;28;20209;-71
2022/10/26 08:54:28;;;;;;;9.18;3.83;;;;;;;15.21;100.00;96569.41;5038282;28;20221;-71
2022/10/26 08:57:00;;;;;;;7.75;3.72;;;;;;;15.24;100.00;96572.50;5038616;28;21227;-72
2022/10/26 08:59:34;;;;;;;7.57;3.35;;;;;;;15.36;100.00;96577.03;5038804;28;20304;-72
2022/10/26 09:02:01;;;;;;;6.47;3.45;;;;;;;15.34;100.00;96581.72;5038743;28;20228;-72
2022/10/26 09:04:29;;;;;;;6.68;3.05;;;;;;;15.37;100.00;96581.31;5038158;28;20275;-72
2022/10/26 09:07:02;;;;;;;7.78;3.33;;;;;;;15.43;100.00;96590.34;5038694;28;20205;-72
2022/10/26 09:09:39;;;;;;;6.43;2.97;;;;;;;15.54;100.00;96587.09;5036651;28;20205;-72
2022/10/26 09:12:14;;;;;;;6.57;2.83;;;;;;;15.57;100.00;96584.88;5038103;28;20189;-72
2022/10/26 09:14:56;;;;;;;6.85;3.40;;;;;;;15.56;100.00;96590.41;5038500;28;20211;-72
2022/10/26 09:17:32;;;;;;;11.07;3.42;;;;;;;15.76;100.00;96588.59;5038587;28;20211;-72
2022/10/26 09:20:30;;;;;;;7.40;3.60;;;;;;;15.80;100.00;96582.69;5038247;28;20205;-72
2022/10/26 09:23:05;;;;;;;7.53;3.30;;;;;;;15.66;100.00;96590.84;5036773;28;20707;-72
2022/10/26 09:25:38;;;;;;;7.90;3.60;;;;;;;15.74;100.00;96598.63;5038114;28;20204;-72
2022/10/26 09:28:15;;;;;;;8.52;3.25;;;;;;;15.72;100.00;96596.19;5037983;28;20209;-72
2022/10/26 09:30:44;;;;;;;8.30;3.22;;;;;;;15.53;100.00;96599.56;5036942;28;20717;-72
2022/10/26 09:33:15;;;;;;;5.30;3.00;;;;;;;15.51;100.00;96600.78;5037427;28;20225;-72
2022/10/26 09:35:46;;;;;;;6.60;3.17;;;;;;;15.46;100.00;96605.88;5037984;28;20201;-72
2022/10/26 09:38:17;;;;;;;7.25;3.60;;;;;;;15.38;100.00;96609.50;5037505;28;20208;-72
2022/10/26 09:40:52;;;;;;;6.80;2.70;;;;;;;15.52;100.00;96610.41;5038156;28;20205;-71
2022/10/26 09:43:26;;;;;;;8.48;3.00;;;;;;;15.48;100.00;96614.47;5036676;28;20224;-72
2022/10/26 09:45:53;;;;;;;7.00;3.40;;;;;;;15.43;100.00;96609.75;5037838;28;20217;-72
2022/10/26 09:48:27;;;;;;;8.38;3.70;;;;;;;15.58;100.00;96613.09;5037814;28;20208;-72
2022/10/26 09:51:02;;;;;;;5.85;2.92;;;;;;;15.61;100.00;96614.53;5054271;28;20581;-72
2022/10/26 09:53:28;;;;;;;7.25;2.88;;;;;;;15.59;100.00;96616.56;5051255;28;20216;-71
2022/10/26 09:56:02;;;;;;;4.82;2.50;;;;;;;15.73;100.00;96620.91;5054442;28;20204;-72
2022/10/26 09:58:31;;;;;;;7.47;2.72;;;;;;;15.74;100.00;96617.22;5054224;28;20257;-71
2022/10/26 10:00:58;;;;;;;8.55;2.90;;;;;;;15.67;100.00;96611.06;5054124;28;20209;-71
2022/10/26 10:03:26;;;;;;;10.52;2.72;;;;;;;15.70;100.00;96618.66;5053526;28;20216;-71
2022/10/26 10:05:55;;;;;;;5.95;2.83;;;;;;;15.83;100.00;96619.50;5054136;28;20215;-72
2022/10/26 10:08:25;;;;;;;6.00;2.53;;;;;;;16.03;100.00;96615.88;5053847;28;20227;-72
2022/10/26 10:10:57;;;;;;;10.23;2.50;;;;;;;16.09;100.00;96615.06;5053961;28;20220;-72
2022/10/26 10:13:25;;;;;;;4.90;2.58;;;;;;;16.23;100.00;96623.88;5053260;28;20224;-72
2022/10/26 10:15:54;;;;;;;8.35;2.75;;;;;;;16.37;100.00;96618.44;5054019;28;20568;-72
2022/10/26 10:18:22;;;;;;;6.82;2.47;;;;;;;16.47;100.00;96624.19;5054209;28;20201;-71
2022/10/26 10:20:55;;;;;;;9.07;2.53;;;;;;;16.60;100.00;96621.50;5053853;28;20254;-71
2022/10/26 10:23:29;;;;;;;12.27;2.40;;;;;;;16.76;100.00;96626.41;5052802;28;20225;-71
2022/10/26 10:26:00;;;;;;;6.63;2.28;;;;;;;16.92;100.00;96629.47;5053915;28;20333;-72
2022/10/26 10:28:28;;;;;;;8.35;2.70;;;;;;;17.01;100.00;96630.91;5053970;28;20859;-72
2022/10/26 10:30:58;;;;;;;6.47;2.25;;;;;;;16.99;100.00;96629.47;5053126;28;20224;-73
2022/10/26 10:33:33;;;;;;;4.50;1.63;;;;;;;17.33;100.00;96638.84;5052568;28;20247;-72
2022/10/26 10:36:00;;;;;;;10.50;2.47;;;;;;;17.40;100.00;96644.16;5053581;28;20212;-72
2022/10/26 10:38:28;;;;;;;6.28;2.17;;;;;;;17.61;100.00;96638.59;5053606;28;20205;-72
2022/10/26 10:40:57;;;;;;;4.57;2.20;;;;;;;17.73;100.00;96635.88;5053514;28;20212;-72
2022/10/26 10:43:25;;;;;;;4.38;2.33;;;;;;;17.71;100.00;96633.63;5052911;28;20223;-73
2022/10/26 10:45:55;;;;;;;6.95;2.25;;;;;;;17.80;100.00;96636.63;5053203;28;20205;-73
2022/10/26 10:48:24;;;;;;;3.95;2.25;;;;;;;18.22;100.00;96627.25;5053020;28;20438;-73
2022/10/26 10:50:54;;;;;;;5.32;1.98;;;;;;;18.52;100.00;96631.75;5052769;28;20233;-72
2022/10/26 10:53:24;;;;;;;5.80;1.88;;;;;;;18.70;100.00;96640.66;5050213;28;20248;-73
2022/10/26 10:56:15;;;;;;;3.47;1.88;;;;;;;19.07;98.34;96637.09;5052932;28;20696;-72
2022/10/26 10:58:51;;;;;;;2.78;1.63;;;;;;;19.08;97.14;96642.22;5053250;28;20200;-73
2022/10/26 11:01:22;;;;;;;3.22;1.50;;;;;;;19.02;96.35;96644.91;5045439;28;20204;-73
2022/10/26 11:04:09;;;;;;;7.53;1.95;;;;;;;18.99;95.85;96640.81;5039293;28;20221;-73
2022/10/26 11:06:40;;;;;;;4.10;1.60;;;;;;;18.71;96.27;96644.13;5039156;28;20205;-72
2022/10/26 11:09:10;;;;;;;5.90;1.65;;;;;;;18.80;96.74;96657.00;5039815;28;20224;-73
2022/10/26 11:11:44;;;;;;;3.85;1.50;;;;;;;18.64;96.34;96646.84;5039780;28;20575;-73
2022/10/26 11:14:15;;;;;;;3.75;1.60;;;;;;;18.50;97.64;96650.66;5038672;28;20232;-73
2022/10/26 11:16:44;;;;;;;7.35;1.60;;;;;;;18.42;97.55;96642.91;5039273;28;20204;-73
2022/10/26 11:19:20;;;;;;;9.45;1.80;;;;;;;18.49;99.15;96653.53;5038789;28;20201;-73
2022/10/26 11:21:51;;;;;;;4.32;1.50;;;;;;;18.49;97.90;96648.19;5039668;28;20201;-73
2022/10/26 11:24:22;;;;;;;6.90;1.83;;;;;;;18.62;98.99;96654.28;5038667;28;20225;-73
2022/10/26 11:26:55;;;;;;;6.80;1.85;;;;;;;18.73;99.97;96650.09;5039228;28;20201;-73
2022/10/26 11:29:28;;;;;;;7.13;2.20;;;;;;;18.61;99.54;96652.63;5039121;28;20259;-73
2022/10/26 11:32:01;;;;;;;4.47;1.70;;;;;;;18.51;100.00;96652.28;5039230;28;20212;-73
2022/10/26 11:34:34;;;;;;;9.52;1.95;;;;;;;18.55;100.00;96652.69;5038061;28;20221;-73